createdAt,value
2023-02-12T00:00:44.806Z,32.88
2023-02-12T00:03:13.234Z,71.65
2023-02-12T00:05:41.179Z,56.65
2023-02-12T00:08:08.550Z,44.00
2023-02-12T00:10:35.538Z,62.25
2023-02-12T00:13:02.599Z,47.50
2023-02-12T00:15:29.414Z,55.45
2023-02-12T00:17:56.211Z,102.72
2023-02-12T00:20:24.433Z,57.90
2023-02-12T00:22:51.130Z,68.20
2023-02-12T00:25:17.882Z,83.70
2023-02-12T00:27:47.569Z,128.27
2023-02-12T00:30:14.854Z,54.90
2023-02-12T00:32:42.312Z,61.38
2023-02-12T00:35:09.770Z,31.60
2023-02-12T00:37:37.841Z,68.55
2023-02-12T00:40:05.429Z,29.70
2023-02-12T00:42:32.438Z,41.42
2023-02-12T00:44:59.371Z,56.70
2023-02-12T00:47:26.152Z,39.33
2023-02-12T00:49:55.937Z,44.47
2023-02-12T00:52:24.089Z,32.15
2023-02-12T00:54:55.061Z,37.97
2023-02-12T00:57:22.964Z,41.75
2023-02-12T00:59:49.640Z,34.50
2023-02-12T01:02:16.502Z,29.80
2023-02-12T01:04:43.455Z,38.95
2023-02-12T01:07:10.603Z,32.30
2023-02-12T01:09:37.382Z,42.90
2023-02-12T01:12:08.619Z,43.65
2023-02-12T01:14:36.131Z,31.92
2023-02-12T01:17:04.177Z,36.42
2023-02-12T01:19:31.179Z,33.83
2023-02-12T01:21:58.209Z,29.42
2023-02-12T01:24:25.137Z,31.15
2023-02-12T01:26:52.088Z,31.25
2023-02-12T01:29:20.343Z,34.90
2023-02-12T01:31:50.183Z,35.22
2023-02-12T01:34:17.237Z,41.80
2023-02-12T01:36:44.203Z,35.17
2023-02-12T01:39:12.205Z,32.53
2023-02-12T01:41:44.752Z,27.48
2023-02-12T01:44:15.844Z,25.83
2023-02-12T01:46:46.776Z,28.85
2023-02-12T01:49:18.785Z,28.67
2023-02-12T01:51:48.488Z,39.65
2023-02-12T01:54:19.096Z,48.17
2023-02-12T01:56:46.827Z,48.08
2023-02-12T01:59:16.745Z,61.17
2023-02-12T02:01:44.985Z,55.72
2023-02-12T02:04:16.747Z,52.83
2023-02-12T02:09:13.140Z,42.55
2023-02-12T02:11:39.841Z,61.30
2023-02-12T02:14:06.912Z,50.40
2023-02-12T02:16:36.464Z,82.60
2023-02-12T02:19:23.045Z,59.58
2023-02-12T02:22:14.820Z,38.47
2023-02-12T02:25:07.940Z,32.40
2023-02-12T02:27:42.320Z,21.35
2023-02-12T02:30:25.042Z,25.92
2023-02-12T02:32:59.194Z,39.30
2023-02-12T02:35:32.791Z,65.55
2023-02-12T02:38:15.733Z,71.50
2023-02-12T02:40:50.008Z,40.40
2023-02-12T02:43:23.476Z,42.20
2023-02-12T02:45:56.214Z,33.08
2023-02-12T02:48:29.581Z,56.58
2023-02-12T02:51:05.670Z,28.40
2023-02-12T02:53:35.281Z,54.55
2023-02-12T02:56:06.628Z,31.75
2023-02-12T03:01:07.845Z,81.88
2023-02-12T03:03:38.512Z,80.00
2023-02-12T03:06:11.326Z,83.80
2023-02-12T03:08:42.420Z,58.92
2023-02-12T03:11:17.119Z,109.05
2023-02-12T03:13:48.978Z,107.22
2023-02-12T03:16:23.220Z,129.00
2023-02-12T03:18:56.367Z,128.77
2023-02-12T03:21:32.056Z,111.00
2023-02-12T03:24:02.842Z,80.80
2023-02-12T03:26:37.569Z,53.17
2023-02-12T03:29:04.526Z,129.98
2023-02-12T03:31:42.222Z,65.88
2023-02-12T03:34:14.835Z,35.60
2023-02-12T03:36:48.608Z,65.78
2023-02-12T03:39:25.664Z,51.85
2023-02-12T03:41:59.584Z,81.10
2023-02-12T03:44:43.906Z,41.35
2023-02-12T03:47:21.837Z,50.80
2023-02-12T03:49:57.343Z,134.50
2023-02-12T03:52:24.343Z,81.00
2023-02-12T03:54:52.735Z,103.88
2023-02-12T03:57:22.678Z,236.85
2023-02-12T03:59:50.484Z,141.35
2023-02-12T04:02:19.464Z,124.47
2023-02-12T04:04:47.590Z,158.77
2023-02-12T04:07:15.699Z,222.35
2023-02-12T04:09:42.492Z,381.15
2023-02-12T04:12:33.462Z,300.65
2023-02-12T04:15:10.697Z,321.30
2023-02-12T04:17:50.099Z,308.95
2023-02-12T04:20:27.126Z,324.38
2023-02-12T04:23:09.251Z,266.83
2023-02-12T04:25:50.905Z,387.52
2023-02-12T04:28:28.603Z,391.23
2023-02-12T04:30:59.744Z,276.27
2023-02-12T04:33:35.086Z,452.83
2023-02-12T04:36:06.926Z,430.15
2023-02-12T04:38:40.124Z,346.30
2023-02-12T04:41:07.986Z,516.13
2023-02-12T04:43:37.163Z,309.13
2023-02-12T04:46:05.294Z,246.38
2023-02-12T04:48:34.198Z,202.23
2023-02-12T04:51:01.278Z,247.60
2023-02-12T04:53:28.499Z,153.40
2023-02-12T04:55:55.529Z,262.50
2023-02-12T04:58:22.668Z,301.40
2023-02-12T05:00:50.167Z,327.60
2023-02-12T05:03:19.116Z,214.50
2023-02-12T05:05:48.549Z,189.77
2023-02-12T05:08:15.545Z,260.92
2023-02-12T05:10:42.637Z,161.93
2023-02-12T05:13:10.674Z,138.70
2023-02-12T05:15:38.983Z,283.80
2023-02-12T05:18:06.063Z,90.82
2023-02-12T05:20:33.108Z,255.93
2023-02-12T05:23:03.635Z,145.75
2023-02-12T05:25:30.773Z,181.68
2023-02-12T05:27:57.570Z,191.98
2023-02-12T05:30:24.920Z,150.18
2023-02-12T05:32:51.821Z,163.65
2023-02-12T05:35:18.985Z,109.70
2023-02-12T05:37:46.229Z,170.50
2023-02-12T05:40:15.941Z,108.85
2023-02-12T05:42:42.644Z,150.50
2023-02-12T05:45:09.933Z,75.13
2023-02-12T05:47:36.815Z,138.40
2023-02-12T05:50:03.842Z,157.32
2023-02-12T05:52:31.337Z,148.52
2023-02-12T05:54:58.400Z,79.60
2023-02-12T05:57:26.764Z,151.45
2023-02-12T05:59:53.904Z,113.57
2023-02-12T06:02:20.733Z,184.73
2023-02-12T06:04:48.754Z,151.95
2023-02-12T06:07:16.998Z,228.75
2023-02-12T06:09:46.943Z,129.65
2023-02-12T06:12:16.856Z,217.57
2023-02-12T06:14:46.119Z,136.88
2023-02-12T06:17:12.992Z,165.35
2023-02-12T06:19:39.865Z,85.25
2023-02-12T06:22:08.948Z,100.88
2023-02-12T06:24:35.775Z,82.80
2023-02-12T06:27:03.350Z,71.45
2023-02-12T06:29:30.352Z,55.40
2023-02-12T06:31:58.538Z,63.08
2023-02-12T06:34:25.295Z,54.88
2023-02-12T06:36:52.097Z,53.20
2023-02-12T06:39:19.023Z,56.30
2023-02-12T06:41:46.262Z,53.13
2023-02-12T06:44:14.065Z,66.30
2023-02-12T06:46:41.674Z,51.50
2023-02-12T06:49:12.514Z,65.82
2023-02-12T06:51:39.539Z,68.07
2023-02-12T06:54:06.538Z,55.17
2023-02-12T06:56:33.343Z,68.63
2023-02-12T06:59:00.545Z,69.78
2023-02-12T07:01:29.965Z,63.28
2023-02-12T07:03:58.125Z,68.60
2023-02-12T07:06:27.938Z,70.53
2023-02-12T07:08:56.336Z,62.17
2023-02-12T07:11:24.672Z,67.68
2023-02-12T07:13:51.900Z,71.47
2023-02-12T07:16:18.907Z,66.38
2023-02-12T07:18:47.174Z,65.00
2023-02-12T07:21:18.076Z,67.25
2023-02-12T07:23:50.998Z,76.55
2023-02-12T07:26:19.036Z,73.95
2023-02-12T07:28:46.926Z,65.68
2023-02-12T07:31:16.001Z,71.65
2023-02-12T07:33:43.418Z,63.88
2023-02-12T07:36:14.350Z,73.25
2023-02-12T07:38:41.775Z,55.28
2023-02-12T07:41:16.087Z,62.72
2023-02-12T07:43:46.754Z,68.32
2023-02-12T07:46:15.777Z,73.40
2023-02-12T07:48:45.775Z,70.18
2023-02-12T07:51:14.355Z,58.45
2023-02-12T07:53:41.209Z,71.55
2023-02-12T07:56:12.104Z,70.72
2023-02-12T07:58:40.162Z,79.22
2023-02-12T08:01:16.024Z,57.42
2023-02-12T08:03:43.411Z,55.45
2023-02-12T08:06:12.278Z,54.30
2023-02-12T08:08:39.251Z,59.65
2023-02-12T08:11:07.273Z,52.00
2023-02-12T08:13:38.636Z,57.90
2023-02-12T08:18:34.864Z,61.58
2023-02-12T08:21:02.885Z,71.85
2023-02-12T08:23:29.805Z,75.43
2023-02-12T08:26:05.493Z,74.55
2023-02-12T08:28:32.684Z,69.30
2023-02-12T08:31:02.139Z,57.50
2023-02-12T08:33:30.163Z,61.92
2023-02-12T08:36:02.508Z,62.97
2023-02-12T08:38:29.358Z,68.20
2023-02-12T08:41:02.743Z,65.00
2023-02-12T08:43:29.910Z,65.75
2023-02-12T08:46:03.325Z,56.92
2023-02-12T08:48:30.211Z,61.78
2023-02-12T08:50:58.063Z,67.35
2023-02-12T08:53:25.909Z,62.63
2023-02-12T08:55:52.708Z,58.70
2023-02-12T08:58:19.653Z,55.42
2023-02-12T09:00:46.481Z,61.65
2023-02-12T09:03:15.310Z,64.50
2023-02-12T09:05:42.316Z,56.47
2023-02-12T09:08:09.590Z,55.03
2023-02-12T09:10:39.856Z,52.22
2023-02-12T09:13:06.977Z,59.40
2023-02-12T09:15:39.506Z,60.80
2023-02-12T09:18:07.692Z,55.20
2023-02-12T09:20:37.684Z,57.00
2023-02-12T09:23:06.857Z,52.35
2023-02-12T09:25:34.441Z,50.47
2023-02-12T09:28:01.406Z,50.60
2023-02-12T09:30:29.779Z,47.63
2023-02-12T09:32:56.799Z,50.35
2023-02-12T09:35:29.561Z,46.90
2023-02-12T09:37:59.293Z,45.88
2023-02-12T09:40:37.791Z,48.35
2023-02-12T09:43:16.462Z,49.83
2023-02-12T09:45:53.549Z,45.05
2023-02-12T09:48:38.410Z,48.15
2023-02-12T09:51:08.286Z,39.00
2023-02-12T09:53:40.097Z,44.47
2023-02-12T09:56:13.686Z,41.03
2023-02-12T09:58:46.405Z,42.72
2023-02-12T10:01:15.737Z,36.42
2023-02-12T10:03:43.287Z,38.35
2023-02-12T10:06:16.243Z,36.20
2023-02-12T10:09:07.100Z,33.65
2023-02-12T10:11:50.816Z,31.33
2023-02-12T10:14:46.709Z,30.88
2023-02-12T10:17:19.682Z,29.95
2023-02-12T10:20:11.935Z,30.23
2023-02-12T10:22:56.874Z,30.48
2023-02-12T10:25:30.608Z,28.85
2023-02-12T10:28:00.822Z,25.63
2023-02-12T10:30:37.859Z,27.77
2023-02-12T10:33:09.866Z,19.40
2023-02-12T10:35:40.267Z,16.13
2023-02-12T10:38:16.116Z,18.10
2023-02-12T10:40:46.310Z,23.50
2023-02-12T10:43:13.783Z,17.40
2023-02-12T10:45:42.871Z,17.73
2023-02-12T10:48:13.784Z,23.20
2023-02-12T10:50:52.412Z,17.50
2023-02-12T10:53:22.915Z,19.65
2023-02-12T10:56:09.580Z,17.60
2023-02-12T10:58:36.556Z,18.88
2023-02-12T11:01:04.726Z,18.50
2023-02-12T11:03:33.128Z,21.45
2023-02-12T11:06:13.082Z,20.38
2023-02-12T11:08:40.231Z,22.27
2023-02-12T11:11:12.030Z,20.58
2023-02-12T11:13:41.886Z,21.20
2023-02-12T11:16:09.394Z,18.10
2023-02-12T11:18:37.572Z,23.02
2023-02-12T11:21:07.903Z,20.63
2023-02-12T11:23:36.222Z,21.20
2023-02-12T11:26:05.437Z,20.33
2023-02-12T11:28:36.931Z,21.92
2023-02-12T11:31:20.439Z,23.83
2023-02-12T11:33:47.548Z,26.00
2023-02-12T11:36:21.143Z,20.50
2023-02-12T11:39:02.282Z,19.77
2023-02-12T11:41:42.133Z,21.98
2023-02-12T11:44:16.214Z,19.98
2023-02-12T11:46:49.341Z,22.67
2023-02-12T11:49:23.520Z,24.65
2023-02-12T11:51:52.859Z,28.10
2023-02-12T11:54:23.503Z,22.33
2023-02-12T11:56:50.764Z,22.13
2023-02-12T11:59:36.476Z,22.95
2023-02-12T12:02:22.036Z,22.60
2023-02-12T12:04:51.887Z,22.33
2023-02-12T12:07:24.355Z,17.35
2023-02-12T12:10:00.504Z,18.25
2023-02-12T12:12:35.140Z,15.15
2023-02-12T12:15:13.328Z,20.63
2023-02-12T12:17:47.774Z,21.83
2023-02-12T12:20:26.436Z,21.15
2023-02-12T12:22:58.794Z,25.77
2023-02-12T12:25:31.705Z,26.77
2023-02-12T12:28:07.062Z,25.98
2023-02-12T12:30:50.749Z,22.33
2023-02-12T12:33:22.763Z,25.65
2023-02-12T12:36:08.658Z,25.58
2023-02-12T12:38:46.094Z,25.67
2023-02-12T12:41:23.753Z,29.75
2023-02-12T12:44:02.804Z,27.48
2023-02-12T12:46:53.470Z,27.42
2023-02-12T12:49:39.046Z,26.83
2023-02-12T12:52:18.604Z,29.83
2023-02-12T12:55:08.969Z,27.23
2023-02-12T12:57:47.614Z,26.27
2023-02-12T13:00:27.590Z,24.95
2023-02-12T13:03:13.536Z,23.98
2023-02-12T13:06:04.964Z,30.05
2023-02-12T13:09:00.790Z,23.35
2023-02-12T13:11:57.033Z,25.17
2023-02-12T13:14:42.831Z,26.83
2023-02-12T13:17:21.747Z,26.52
2023-02-12T13:20:17.761Z,28.77
2023-02-12T13:23:01.067Z,27.08
2023-02-12T13:28:34.566Z,24.67
2023-02-12T13:31:16.274Z,26.55
2023-02-12T13:34:14.858Z,29.80
2023-02-12T13:36:49.895Z,29.70
2023-02-12T13:39:33.351Z,24.15
2023-02-12T13:42:19.572Z,23.83
2023-02-12T13:45:04.702Z,27.50
2023-02-12T13:47:56.943Z,25.55
2023-02-12T13:51:05.077Z,21.13
2023-02-12T13:53:46.664Z,22.05
2023-02-12T13:56:34.506Z,24.23
2023-02-12T13:59:34.074Z,22.88
2023-02-12T14:02:25.394Z,21.55
2023-02-12T14:05:16.647Z,23.25
2023-02-12T14:08:02.817Z,21.58
2023-02-12T14:10:46.511Z,21.13
2023-02-12T14:13:29.378Z,19.10
2023-02-12T14:16:02.022Z,19.27
2023-02-12T14:18:45.007Z,21.38
2023-02-12T14:21:48.291Z,26.15
2023-02-12T14:24:50.524Z,21.52
2023-02-12T14:31:43.056Z,20.95
2023-02-12T14:34:51.204Z,22.33
2023-02-12T14:37:56.980Z,27.45
2023-02-12T14:40:45.665Z,20.15
2023-02-12T14:43:39.536Z,26.80
2023-02-12T14:46:52.494Z,26.27
2023-02-12T14:49:27.210Z,23.92
2023-02-12T14:52:01.967Z,23.17
2023-02-12T14:54:38.389Z,26.48
2023-02-12T14:57:15.807Z,22.20
2023-02-12T14:59:49.919Z,21.00
2023-02-12T15:02:49.485Z,20.05
2023-02-12T15:05:46.202Z,22.50
2023-02-12T15:08:25.355Z,21.92
2023-02-12T15:11:13.158Z,26.65
2023-02-12T15:13:57.781Z,22.13
2023-02-12T15:16:38.618Z,22.60
2023-02-12T15:19:22.007Z,23.23
2023-02-12T15:22:00.963Z,23.15
2023-02-12T15:24:30.834Z,20.42
2023-02-12T15:27:01.672Z,22.35
2023-02-12T15:29:47.598Z,25.10
2023-02-12T15:32:22.703Z,20.27
2023-02-12T15:34:59.574Z,23.95
2023-02-12T15:37:29.515Z,21.48
2023-02-12T15:40:11.986Z,20.17
2023-02-12T15:42:57.841Z,20.38
2023-02-12T15:45:36.432Z,23.52
2023-02-12T15:48:17.994Z,21.45
2023-02-12T15:51:03.396Z,20.05
2023-02-12T15:53:42.616Z,22.50
2023-02-12T15:56:33.464Z,18.67
2023-02-12T15:59:04.911Z,16.17
2023-02-12T16:04:21.337Z,16.05
2023-02-12T16:06:52.011Z,17.70
2023-02-12T16:09:28.954Z,17.73
2023-02-12T16:12:03.136Z,15.73
2023-02-12T16:14:48.597Z,18.40
2023-02-12T16:20:29.945Z,15.75
2023-02-12T16:23:10.676Z,15.02
2023-02-12T16:25:40.938Z,14.55
2023-02-12T16:28:35.793Z,13.20
2023-02-12T16:31:16.726Z,15.70
2023-02-12T16:33:54.734Z,14.02
2023-02-12T16:37:01.964Z,14.63
2023-02-12T16:40:06.124Z,13.60
2023-02-12T16:42:55.591Z,17.25
2023-02-12T16:48:41.897Z,13.27
2023-02-12T16:51:28.416Z,14.88
2023-02-12T16:54:03.905Z,15.63
2023-02-12T16:56:34.609Z,17.42
2023-02-12T16:59:05.562Z,13.18
2023-02-12T17:01:37.563Z,14.23
2023-02-12T17:04:15.154Z,13.90
2023-02-12T17:06:46.274Z,14.48
2023-02-12T17:09:16.378Z,15.63
2023-02-12T17:11:43.222Z,15.90
2023-02-12T17:14:30.442Z,15.70
2023-02-12T17:17:23.671Z,14.77
2023-02-12T17:19:53.565Z,17.83
2023-02-12T17:22:23.430Z,15.02
2023-02-12T17:25:23.884Z,17.73
2023-02-12T17:27:59.494Z,16.50
2023-02-12T17:30:37.359Z,16.77
2023-02-12T17:33:07.414Z,19.50
2023-02-12T17:35:55.316Z,17.80
2023-02-12T17:38:26.262Z,15.55
2023-02-12T17:41:13.923Z,17.10
2023-02-12T17:43:43.615Z,17.50
2023-02-12T17:46:33.861Z,18.13
2023-02-12T17:54:55.171Z,19.42
2023-02-12T17:57:31.840Z,22.65
2023-02-12T18:00:25.210Z,19.10
2023-02-12T18:03:02.813Z,20.13
2023-02-12T18:06:27.337Z,19.42
2023-02-12T18:09:03.031Z,18.73
2023-02-12T18:11:31.588Z,20.73
2023-02-12T18:14:37.150Z,18.40
2023-02-12T18:17:27.981Z,21.10
2023-02-12T18:21:16.576Z,22.05
2023-02-12T18:26:43.755Z,18.63
2023-02-12T18:29:21.893Z,21.10
2023-02-12T18:32:05.599Z,19.20
2023-02-12T18:40:28.688Z,20.27
2023-02-12T18:43:01.663Z,20.45
2023-02-12T18:45:33.642Z,21.67
2023-02-12T18:48:13.199Z,23.75
2023-02-12T18:50:40.237Z,22.58
2023-02-12T18:53:09.259Z,26.17
2023-02-12T18:56:20.527Z,24.02
2023-02-12T19:02:42.925Z,27.17
2023-02-12T19:12:59.822Z,32.33
2023-02-12T19:15:55.732Z,32.75
2023-02-12T19:19:07.585Z,41.78
2023-02-12T19:25:12.072Z,27.23
2023-02-12T19:28:06.732Z,29.42
2023-02-12T19:30:48.803Z,28.80
2023-02-12T19:33:21.997Z,30.15
2023-02-12T19:36:09.124Z,29.13
2023-02-12T19:38:50.890Z,26.17
2023-02-12T19:41:34.928Z,27.30
2023-02-12T19:44:48.682Z,29.70
2023-02-12T19:47:43.417Z,26.42
2023-02-12T19:50:46.200Z,27.88
2023-02-12T20:00:02.676Z,28.45
2023-02-12T20:06:12.031Z,29.05
2023-02-12T20:12:04.317Z,30.45
2023-02-12T20:15:13.101Z,33.42
2023-02-12T20:18:05.517Z,31.83
2023-02-12T20:21:16.603Z,30.50
2023-02-12T20:23:54.001Z,29.02
2023-02-12T20:26:29.342Z,33.42
2023-02-12T20:32:32.928Z,40.13
2023-02-12T20:35:52.954Z,40.65
2023-02-12T20:38:50.635Z,40.95
2023-02-12T20:42:10.659Z,34.60
2023-02-12T20:48:26.828Z,35.55
2023-02-12T20:54:15.400Z,32.75
2023-02-12T21:00:08.668Z,29.70
2023-02-12T21:03:23.642Z,33.42
2023-02-12T21:09:20.483Z,37.22
2023-02-12T21:12:05.396Z,31.92
2023-02-12T21:14:51.028Z,35.13
2023-02-12T21:17:20.876Z,33.28
2023-02-12T21:19:51.713Z,34.35
2023-02-12T21:22:21.835Z,31.10
2023-02-12T21:24:55.252Z,34.20
2023-02-12T21:27:30.465Z,33.05
2023-02-12T21:29:57.863Z,37.55
2023-02-12T21:32:32.321Z,33.00
2023-02-12T21:34:59.264Z,33.70
2023-02-12T21:37:27.452Z,30.75
2023-02-12T21:39:56.185Z,33.15
2023-02-12T21:42:25.849Z,35.25
2023-02-12T21:44:52.858Z,33.13
2023-02-12T21:47:21.831Z,32.35
2023-02-12T21:49:52.938Z,32.10
2023-02-12T21:52:19.913Z,28.20
2023-02-12T21:54:47.138Z,30.23
2023-02-12T21:57:17.910Z,34.72
2023-02-12T21:59:47.249Z,29.23
2023-02-12T22:02:15.278Z,35.80
2023-02-12T22:04:42.204Z,35.72
2023-02-12T22:07:10.041Z,39.33
2023-02-12T22:09:39.580Z,36.95
2023-02-12T22:12:08.825Z,33.28
2023-02-12T22:14:40.496Z,33.83
2023-02-12T22:17:07.402Z,32.33
2023-02-12T22:19:35.330Z,33.50
2023-02-12T22:22:02.566Z,31.75
2023-02-12T22:24:29.648Z,32.67
2023-02-12T22:26:56.609Z,34.05
2023-02-12T22:29:24.011Z,31.30
2023-02-12T22:31:52.865Z,31.77
2023-02-12T22:34:20.444Z,36.85
2023-02-12T22:36:49.303Z,30.02
2023-02-12T22:39:18.821Z,31.70
2023-02-12T22:41:46.381Z,32.65
2023-02-12T22:44:15.898Z,35.05
2023-02-12T22:46:45.700Z,39.90
2023-02-12T22:49:14.271Z,31.38
2023-02-12T22:51:42.799Z,35.20
2023-02-12T22:54:13.398Z,39.15
2023-02-12T22:56:40.329Z,32.83
2023-02-12T22:59:07.570Z,34.75
2023-02-12T23:01:34.527Z,33.25
2023-02-12T23:04:04.370Z,37.08
2023-02-12T23:06:47.579Z,32.85
2023-02-12T23:09:16.200Z,45.35
2023-02-12T23:11:43.058Z,40.83
2023-02-12T23:14:10.293Z,41.22
2023-02-12T23:16:37.249Z,37.67
2023-02-12T23:19:04.564Z,39.53
2023-02-12T23:21:33.876Z,38.50
2023-02-12T23:24:02.133Z,40.13
2023-02-12T23:26:30.061Z,40.05
2023-02-12T23:28:57.570Z,40.67
2023-02-12T23:31:25.428Z,33.00
2023-02-12T23:33:57.969Z,39.15
2023-02-12T23:36:24.861Z,33.83
2023-02-12T23:38:51.713Z,38.85
2023-02-12T23:41:20.121Z,36.20
2023-02-12T23:43:46.989Z,34.70
2023-02-12T23:46:13.782Z,31.95
2023-02-12T23:48:41.189Z,32.70
2023-02-12T23:51:09.063Z,32.03
2023-02-12T23:53:35.914Z,34.70
2023-02-12T23:56:02.855Z,31.60
2023-02-12T23:58:31.364Z,32.30
